Time;durP1;ratioP1;P1;durP2;ratioP2;P2;SDS_P1;SDS_P2;PMS_P1;PMS_P2;Temp;Humidity;BMP_temperature;BMP_pressure;BME280_temperature;BME280_humidity;BME280_pressure;Samples;Min_cycle;Max_cycle;Signal;HPM_P1;HPM_P2
2021/06/17 00:00:39;;;;;;;;;;;22.80;99.90;;;;;;5015427;28;20074;-74
2021/06/17 00:03:05;;;;;;;;;;;22.80;99.90;;;;;;5034128;28;19919;-75
2021/06/17 00:05:31;;;;;;;;;;;22.90;99.90;;;;;;5033892;28;19955;-75
2021/06/17 00:07:57;;;;;;;;;;;22.80;99.90;;;;;;5032875;28;19914;-73
2021/06/17 00:10:28;;;;;;;;;;;22.80;99.90;;;;;;5033622;28;20089;-73
2021/06/17 00:12:54;;;;;;;;;;;22.60;99.90;;;;;;5032984;28;19921;-74
2021/06/17 00:15:21;;;;;;;;;;;22.70;99.90;;;;;;5034621;28;19955;-74
2021/06/17 00:17:47;;;;;;;;;;;22.80;99.90;;;;;;5032406;28;19913;-74
2021/06/17 00:20:13;;;;;;;;;;;22.90;99.90;;;;;;5032599;28;20000;-74
2021/06/17 00:22:39;;;;;;;;;;;23.00;99.90;;;;;;5032104;28;19921;-74
2021/06/17 00:25:05;;;;;;;;;;;23.00;99.90;;;;;;5032380;28;19920;-74
2021/06/17 00:27:31;;;;;;;;;;;23.00;99.90;;;;;;5031455;28;19928;-73
2021/06/17 00:29:56;;;;;;;;;;;23.00;99.90;;;;;;5032045;28;19913;-74
2021/06/17 00:32:22;;;;;;;;;;;23.00;99.90;;;;;;5033665;28;19964;-75
2021/06/17 00:34:47;;;;;;;;;;;23.10;99.90;;;;;;5032824;28;20358;-74
2021/06/17 00:37:15;;;;;;;;;;;23.10;99.90;;;;;;5015765;28;19917;-74
2021/06/17 00:39:41;;;;;;;;;;;23.10;99.90;;;;;;5033892;28;19913;-74
2021/06/17 00:42:07;;;;;;;;;;;23.10;99.90;;;;;;5031936;28;20008;-74
2021/06/17 00:44:32;;;;;;;;;;;23.10;99.90;;;;;;5033240;28;20004;-75
2021/06/17 00:46:58;;;;;;;;;;;23.10;99.90;;;;;;5032921;28;19917;-73
2021/06/17 00:49:24;;;;;;;;;;;23.00;99.90;;;;;;5033204;28;19917;-73
2021/06/17 00:51:49;;;;;;;;;;;23.00;99.90;;;;;;5032151;28;19913;-75
2021/06/17 00:54:31;;;;;;;;;;;22.80;99.90;;;;;;5032209;28;19920;-74
2021/06/17 00:57:04;;;;;;;;;;;22.90;99.90;;;;;;5031022;28;19925;-74
2021/06/17 00:59:30;;;;;;;;;;;22.90;99.90;;;;;;5031738;28;19936;-75
2021/06/17 01:01:55;;;;;;;;;;;22.80;99.90;;;;;;5025650;28;20470;-74
2021/06/17 01:04:22;;;;;;;;;;;22.70;99.90;;;;;;5029960;28;19920;-75
2021/06/17 01:06:48;;;;;;;;;;;22.70;99.90;;;;;;5031868;28;20012;-74
2021/06/17 01:09:22;;;;;;;;;;;22.70;99.90;;;;;;5032318;28;19948;-75
2021/06/17 01:12:00;;;;;;;;;;;22.70;99.90;;;;;;5033443;28;19909;-74
2021/06/17 01:14:28;;;;;;;;;;;22.70;99.90;;;;;;5014113;28;19921;-74
2021/06/17 01:17:14;;;;;;;;;;;22.70;99.90;;;;;;5032411;28;19917;-75
2021/06/17 01:19:57;;;;;;;;;;;22.70;99.90;;;;;;5026992;28;20401;-75
2021/06/17 01:22:31;;;;;;;;;;;22.60;99.90;;;;;;5034140;28;19917;-74
2021/06/17 01:25:08;;;;;;;;;;;22.60;99.90;;;;;;5032382;28;19909;-74
2021/06/17 01:27:53;;;;;;;;;;;22.50;99.90;;;;;;5031565;28;20363;-75
2021/06/17 01:30:19;;;;;;;;;;;22.50;99.90;;;;;;5031192;28;20426;-74
2021/06/17 01:32:53;;;;;;;;;;;22.50;99.90;;;;;;5029944;28;19918;-75
2021/06/17 01:35:20;;;;;;;;;;;22.50;99.90;;;;;;5021519;28;20329;-73
2021/06/17 01:37:46;;;;;;;;;;;22.50;99.90;;;;;;5032710;28;19909;-74
2021/06/17 01:40:12;;;;;;;;;;;22.50;99.90;;;;;;5031414;28;19963;-74
2021/06/17 01:42:40;;;;;;;;;;;22.50;99.90;;;;;;5029882;28;19921;-74
2021/06/17 01:45:06;;;;;;;;;;;22.50;99.90;;;;;;5014138;28;19917;-75
2021/06/17 01:47:33;;;;;;;;;;;22.50;99.90;;;;;;5028584;28;19924;-75
2021/06/17 01:49:59;;;;;;;;;;;22.60;99.90;;;;;;5026031;28;20356;-74
2021/06/17 01:52:25;;;;;;;;;;;22.50;99.90;;;;;;5030097;28;20306;-74
2021/06/17 01:54:51;;;;;;;;;;;22.50;99.90;;;;;;5031564;28;19914;-73
2021/06/17 01:57:18;;;;;;;;;;;22.40;99.90;;;;;;5028837;28;20354;-74
2021/06/17 01:59:45;;;;;;;;;;;22.30;99.90;;;;;;5029896;28;19997;-74
2021/06/17 02:02:12;;;;;;;;;;;22.30;99.90;;;;;;5029747;28;19975;-74
2021/06/17 02:04:39;;;;;;;;;;;22.10;99.90;;;;;;5032434;28;19920;-73
2021/06/17 02:07:05;;;;;;;;;;;22.10;99.90;;;;;;5031731;28;19917;-74
2021/06/17 02:09:31;;;;;;;;;;;22.10;99.90;;;;;;5022086;28;19917;-75
2021/06/17 02:11:57;;;;;;;;;;;22.10;99.90;;;;;;5030034;28;19993;-73
2021/06/17 02:14:24;;;;;;;;;;;22.10;99.90;;;;;;5030285;28;19913;-74
2021/06/17 02:16:50;;;;;;;;;;;22.10;99.90;;;;;;5031397;28;20445;-74
2021/06/17 02:19:17;;;;;;;;;;;22.00;99.90;;;;;;5031715;28;19959;-73
2021/06/17 02:21:44;;;;;;;;;;;22.00;99.90;;;;;;5031105;28;20561;-73
2021/06/17 02:24:10;;;;;;;;;;;22.10;99.90;;;;;;5013569;28;19917;-75
2021/06/17 02:26:47;;;;;;;;;;;22.10;99.90;;;;;;5030130;28;19909;-74
2021/06/17 02:29:19;;;;;;;;;;;22.10;99.90;;;;;;5084145;28;19916;-74
2021/06/17 02:31:48;;;;;;;;;;;22.00;99.90;;;;;;5084640;28;19934;-73
2021/06/17 02:34:14;;;;;;;;;;;22.00;99.90;;;;;;5083854;28;19912;-74
2021/06/17 02:36:44;;;;;;;;;;;22.00;99.90;;;;;;5086498;28;19913;-73
2021/06/17 02:39:10;;;;;;;;;;;22.00;99.90;;;;;;5087224;28;19912;-74
2021/06/17 02:41:43;;;;;;;;;;;22.00;99.90;;;;;;5080519;28;19950;-74
2021/06/17 02:44:09;;;;;;;;;;;21.90;99.90;;;;;;5087304;28;19920;-74
2021/06/17 02:46:35;;;;;;;;;;;21.90;99.90;;;;;;5087805;28;20015;-74
2021/06/17 02:49:00;;;;;;;;;;;21.90;99.90;;;;;;5087775;28;19995;-74
2021/06/17 02:51:26;;;;;;;;;;;21.80;99.90;;;;;;5086489;28;20456;-74
2021/06/17 02:53:52;;;;;;;;;;;21.80;99.90;;;;;;5085356;28;19923;-74
2021/06/17 02:56:27;;;;;;;;;;;21.80;99.90;;;;;;5101576;28;19924;-73
2021/06/17 02:58:58;;;;;;;;;;;21.90;99.90;;;;;;5086880;28;19973;-73
2021/06/17 03:01:24;;;;;;;;;;;21.90;99.90;;;;;;5083153;28;19913;-74
2021/06/17 03:03:54;;;;;;;;;;;21.90;99.90;;;;;;5081303;28;20333;-73
2021/06/17 03:06:24;;;;;;;;;;;21.90;99.90;;;;;;5086136;28;20555;-74
2021/06/17 03:08:52;;;;;;;;;;;22.00;99.90;;;;;;5086144;28;19916;-76
2021/06/17 03:11:18;;;;;;;;;;;22.10;99.90;;;;;;5085374;28;19908;-74
2021/06/17 03:13:46;;;;;;;;;;;22.20;99.90;;;;;;5087868;28;20008;-74
2021/06/17 03:16:13;;;;;;;;;;;22.20;99.90;;;;;;5084373;28;20003;-74
2021/06/17 03:18:40;;;;;;;;;;;22.10;99.90;;;;;;5086006;28;19912;-75
2021/06/17 03:21:06;;;;;;;;;;;22.00;99.90;;;;;;5087276;28;19916;-74
2021/06/17 03:23:32;;;;;;;;;;;22.00;99.90;;;;;;5085449;28;20014;-74
2021/06/17 03:26:00;;;;;;;;;;;22.00;99.90;;;;;;5087641;28;19908;-74
2021/06/17 03:28:26;;;;;;;;;;;22.10;99.90;;;;;;5082828;28;19924;-75
2021/06/17 03:30:52;;;;;;;;;;;22.30;99.90;;;;;;5086933;28;19963;-73
2021/06/17 03:33:18;;;;;;;;;;;22.40;99.90;;;;;;5077530;28;19971;-74
2021/06/17 03:35:45;;;;;;;;;;;22.50;99.90;;;;;;5072178;28;19927;-75
2021/06/17 03:38:11;;;;;;;;;;;22.50;99.90;;;;;;5085171;28;19918;-73
2021/06/17 03:40:37;;;;;;;;;;;22.60;99.90;;;;;;5074166;28;19991;-73
2021/06/17 03:43:04;;;;;;;;;;;22.60;99.90;;;;;;5073221;28;20353;-73
2021/06/17 03:45:30;;;;;;;;;;;22.50;99.90;;;;;;5071971;28;19917;-74
2021/06/17 03:47:56;;;;;;;;;;;22.50;99.90;;;;;;5068628;28;19917;-75
2021/06/17 03:50:23;;;;;;;;;;;22.50;99.90;;;;;;5070365;28;19989;-74
2021/06/17 03:52:50;;;;;;;;;;;22.50;99.90;;;;;;5072740;28;19912;-73
2021/06/17 03:55:16;;;;;;;;;;;22.60;99.90;;;;;;5071166;28;19919;-73
2021/06/17 03:57:42;;;;;;;;;;;22.60;99.90;;;;;;5069842;28;20199;-73
2021/06/17 04:00:09;;;;;;;;;;;22.60;99.90;;;;;;5069402;28;19966;-73
2021/06/17 04:02:34;;;;;;;;;;;22.60;99.90;;;;;;5068376;28;19916;-74
2021/06/17 04:05:00;;;;;;;;;;;22.70;99.90;;;;;;5070049;28;19966;-74
2021/06/17 04:07:26;;;;;;;;;;;22.70;99.90;;;;;;5071881;28;19924;-74
2021/06/17 04:09:54;;;;;;;;;;;22.80;99.90;;;;;;5071135;28;20620;-73
2021/06/17 04:12:21;;;;;;;;;;;22.90;99.90;;;;;;5071892;28;19999;-75
2021/06/17 04:14:51;;;;;;;;;;;22.90;99.90;;;;;;5071649;28;19918;-74
2021/06/17 04:17:19;;;;;;;;;;;23.00;99.90;;;;;;5072476;28;19912;-75
2021/06/17 04:19:45;;;;;;;;;;;23.00;99.90;;;;;;5071654;28;19985;-74
2021/06/17 04:22:12;;;;;;;;;;;23.10;99.90;;;;;;5069908;28;19916;-74
2021/06/17 04:24:42;;;;;;;;;;;23.20;99.90;;;;;;5067690;28;19912;-74
2021/06/17 04:27:08;;;;;;;;;;;23.20;99.90;;;;;;5070343;28;19917;-75
2021/06/17 04:29:38;;;;;;;;;;;23.30;99.90;;;;;;5068073;28;20511;-74
2021/06/17 04:32:05;;;;;;;;;;;23.30;99.90;;;;;;5068595;28;20279;-74
2021/06/17 04:34:32;;;;;;;;;;;23.30;99.90;;;;;;5070427;28;19924;-74
2021/06/17 04:36:58;;;;;;;;;;;23.30;99.90;;;;;;5066902;28;19920;-73
2021/06/17 04:39:26;;;;;;;;;;;23.30;99.90;;;;;;5070432;28;19916;-73
2021/06/17 04:41:52;;;;;;;;;;;23.30;99.90;;;;;;5071716;28;19920;-73
2021/06/17 04:44:18;;;;;;;;;;;23.40;99.90;;;;;;5071222;28;19958;-74
2021/06/17 04:46:44;;;;;;;;;;;23.40;99.90;;;;;;5069495;28;19916;-73
2021/06/17 04:49:13;;;;;;;;;;;23.40;99.90;;;;;;5071168;28;19912;-74
2021/06/17 04:51:39;;;;;;;;;;;23.30;99.90;;;;;;5069478;28;19920;-74
2021/06/17 04:54:06;;;;;;;;;;;23.30;99.90;;;;;;5071028;28;19912;-75
2021/06/17 04:56:32;;;;;;;;;;;23.30;99.90;;;;;;5070811;28;19916;-75
2021/06/17 04:58:57;;;;;;;;;;;23.40;99.90;;;;;;5070771;28;19934;-74
2021/06/17 05:01:23;;;;;;;;;;;23.40;99.90;;;;;;5071488;28;19923;-75
2021/06/17 05:03:48;;;;;;;;;;;23.40;99.90;;;;;;5070651;28;20053;-75
2021/06/17 05:06:17;;;;;;;;;;;23.40;99.90;;;;;;5070762;28;19935;-74
2021/06/17 05:11:26;;;;;;;;;;;23.40;99.90;;;;;;5073045;28;19943;-74
2021/06/17 05:13:52;;;;;;;;;;;23.50;99.90;;;;;;5071388;28;19944;-74
2021/06/17 05:16:18;;;;;;;;;;;23.50;99.90;;;;;;5070345;28;19965;-73
2021/06/17 05:18:44;;;;;;;;;;;23.60;99.90;;;;;;5069958;28;19951;-73
2021/06/17 05:21:09;;;;;;;;;;;23.80;99.90;;;;;;5071264;28;19912;-75
2021/06/17 05:23:37;;;;;;;;;;;23.80;99.90;;;;;;5069456;28;19919;-74
2021/06/17 05:26:02;;;;;;;;;;;23.90;99.90;;;;;;5071535;28;19920;-74
2021/06/17 05:28:28;;;;;;;;;;;23.90;99.90;;;;;;5070876;28;19916;-75
2021/06/17 05:30:55;;;;;;;;;;;24.00;99.90;;;;;;5067143;28;19942;-74
2021/06/17 05:33:21;;;;;;;;;;;24.00;99.90;;;;;;5068622;28;20341;-74
2021/06/17 05:35:47;;;;;;;;;;;24.20;99.90;;;;;;5069252;28;19919;-74
2021/06/17 05:38:20;;;;;;;;;;;24.30;99.90;;;;;;5069827;28;20336;-74
2021/06/17 05:40:45;;;;;;;;;;;24.30;99.90;;;;;;5071233;28;20357;-74
2021/06/17 05:43:11;;;;;;;;;;;24.40;99.90;;;;;;5071262;28;19940;-75
2021/06/17 05:45:37;;;;;;;;;;;24.50;99.90;;;;;;5069673;28;19932;-75
2021/06/17 05:48:03;;;;;;;;;;;24.60;99.90;;;;;;5057829;28;19916;-76
2021/06/17 05:50:28;;;;;;;;;;;24.50;99.90;;;;;;5053092;28;19920;-75
2021/06/17 05:52:54;;;;;;;;;;;24.60;99.90;;;;;;5070221;28;20286;-75
2021/06/17 05:55:19;;;;;;;;;;;24.70;99.90;;;;;;5069305;28;19919;-74
2021/06/17 05:57:45;;;;;;;;;;;24.80;99.90;;;;;;5070827;28;19908;-67
2021/06/17 06:00:11;;;;;;;;;;;24.80;99.90;;;;;;5069804;28;19962;-70
2021/06/17 06:02:37;;;;;;;;;;;24.80;99.90;;;;;;5066716;28;20400;-66
2021/06/17 06:05:03;;;;;;;;;;;24.80;99.90;;;;;;5070718;28;19917;-66
2021/06/17 06:07:29;;;;;;;;;;;24.80;99.90;;;;;;5067920;28;19924;-71
2021/06/17 06:09:55;;;;;;;;;;;24.90;99.90;;;;;;5069332;28;19920;-67
2021/06/17 06:12:20;;;;;;;;;;;25.00;99.90;;;;;;5070125;28;20445;-67
2021/06/17 06:14:46;;;;;;;;;;;24.90;99.90;;;;;;5069584;28;19919;-68
2021/06/17 06:17:11;;;;;;;;;;;25.00;99.90;;;;;;5071303;28;19914;-66
2021/06/17 06:19:37;;;;;;;;;;;25.20;99.90;;;;;;5068456;28;19912;-66
2021/06/17 06:22:06;;;;;;;;;;;25.20;99.90;;;;;;5070534;28;19908;-66
2021/06/17 06:24:33;;;;;;;;;;;25.30;99.90;;;;;;5063299;28;19916;-69
2021/06/17 06:27:00;;;;;;;;;;;25.30;99.90;;;;;;5071240;28;19916;-71
2021/06/17 06:29:26;;;;;;;;;;;25.50;99.90;;;;;;5066775;28;20404;-66
2021/06/17 06:31:51;;;;;;;;;;;25.60;99.90;;;;;;5068319;28;20407;-67
2021/06/17 06:34:17;;;;;;;;;;;25.70;99.90;;;;;;5068101;28;19913;-67
2021/06/17 06:36:43;;;;;;;;;;;25.80;99.90;;;;;;5070872;28;20340;-72
2021/06/17 06:39:08;;;;;;;;;;;25.90;99.90;;;;;;5069359;28;19916;-66
2021/06/17 06:41:35;;;;;;;;;;;26.00;99.90;;;;;;5070061;28;20378;-64
2021/06/17 06:44:01;;;;;;;;;;;26.10;99.90;;;;;;5064680;28;20387;-72
2021/06/17 06:46:26;;;;;;;;;;;26.10;99.90;;;;;;5064206;28;19938;-66
2021/06/17 06:48:52;;;;;;;;;;;26.20;99.90;;;;;;5069214;28;19939;-68
2021/06/17 06:51:17;;;;;;;;;;;26.30;99.90;;;;;;5066627;28;19912;-69
2021/06/17 06:53:43;;;;;;;;;;;26.40;99.90;;;;;;5064756;28;19913;-68
2021/06/17 06:56:09;;;;;;;;;;;26.50;99.90;;;;;;5069143;28;19961;-66
2021/06/17 06:58:34;;;;;;;;;;;26.50;99.90;;;;;;5064345;28;19992;-68
2021/06/17 07:01:00;;;;;;;;;;;26.60;99.90;;;;;;5066831;28;20381;-66
2021/06/17 07:03:25;;;;;;;;;;;26.70;99.90;;;;;;5067162;28;19961;-72
2021/06/17 07:05:51;;;;;;;;;;;26.70;99.90;;;;;;5065099;28;19936;-67
2021/06/17 07:08:17;;;;;;;;;;;26.70;99.90;;;;;;5067623;28;19924;-66
2021/06/17 07:10:45;;;;;;;;;;;26.80;99.90;;;;;;5062939;28;19923;-69
2021/06/17 07:13:11;;;;;;;;;;;26.90;99.90;;;;;;5058841;28;19995;-73
2021/06/17 07:15:37;;;;;;;;;;;26.90;99.90;;;;;;5064322;28;20007;-68
2021/06/17 07:18:03;;;;;;;;;;;27.00;99.90;;;;;;5062481;28;19912;-69
2021/06/17 07:20:28;;;;;;;;;;;27.00;99.90;;;;;;5075522;28;20508;-66
2021/06/17 07:22:57;;;;;;;;;;;26.90;99.90;;;;;;5067934;28;20003;-68
2021/06/17 07:25:23;;;;;;;;;;;27.00;99.90;;;;;;5072366;28;20279;-66
2021/06/17 07:27:49;;;;;;;;;;;27.10;99.90;;;;;;5071005;28;19917;-66
2021/06/17 07:30:15;;;;;;;;;;;27.10;99.90;;;;;;5069919;28;19913;-68
2021/06/17 07:32:40;;;;;;;;;;;27.20;99.90;;;;;;5067333;28;19971;-67
2021/06/17 07:35:06;;;;;;;;;;;27.20;99.90;;;;;;5072454;28;19955;-67
2021/06/17 07:37:32;;;;;;;;;;;27.00;99.90;;;;;;5071976;28;19912;-69
2021/06/17 07:39:57;;;;;;;;;;;26.80;99.90;;;;;;5071656;28;19913;-67
2021/06/17 07:42:23;;;;;;;;;;;26.70;99.90;;;;;;5073564;28;19912;-68
2021/06/17 07:44:51;;;;;;;;;;;26.30;99.90;;;;;;5070394;28;19919;-70
2021/06/17 07:47:17;;;;;;;;;;;26.10;99.90;;;;;;5064018;28;19927;-70
2021/06/17 07:49:43;;;;;;;;;;;25.80;99.90;;;;;;5070722;28;20015;-70
2021/06/17 07:52:08;;;;;;;;;;;25.40;99.90;;;;;;5072158;28;20428;-67
2021/06/17 07:54:34;;;;;;;;;;;25.10;99.90;;;;;;5071095;28;19932;-67
2021/06/17 07:57:00;;;;;;;;;;;24.90;99.90;;;;;;5067852;28;19920;-67
2021/06/17 07:59:28;;;;;;;;;;;24.70;99.90;;;;;;5065435;28;19924;-67
2021/06/17 08:01:54;;;;;;;;;;;24.40;99.90;;;;;;5073179;28;20397;-68
2021/06/17 08:04:19;;;;;;;;;;;24.40;99.90;;;;;;5071947;28;19912;-68
2021/06/17 08:06:45;;;;;;;;;;;24.30;99.90;;;;;;5070612;28;19948;-67
2021/06/17 08:09:17;;;;;;;;;;;24.40;99.90;;;;;;5072094;28;19917;-67
2021/06/17 08:11:43;;;;;;;;;;;24.40;99.90;;;;;;5068393;28;19920;-68
2021/06/17 08:14:08;;;;;;;;;;;24.60;99.90;;;;;;5066859;28;19921;-69
2021/06/17 08:16:34;;;;;;;;;;;24.70;99.90;;;;;;5068550;28;19919;-67
2021/06/17 08:18:59;;;;;;;;;;;24.80;99.90;;;;;;5067086;28;20743;-69
2021/06/17 08:21:26;;;;;;;;;;;24.80;99.90;;;;;;5063260;28;20044;-66
2021/06/17 08:23:54;;;;;;;;;;;24.70;99.90;;;;;;5067878;28;20298;-67
2021/06/17 08:26:20;;;;;;;;;;;24.60;99.90;;;;;;5069725;28;19912;-67
2021/06/17 08:28:46;;;;;;;;;;;24.40;99.90;;;;;;5072328;28;19970;-70
2021/06/17 08:31:12;;;;;;;;;;;24.30;99.90;;;;;;5063197;28;19916;-67
2021/06/17 08:33:37;;;;;;;;;;;24.50;99.90;;;;;;5070633;28;19928;-68
2021/06/17 08:36:07;;;;;;;;;;;24.70;99.90;;;;;;5073028;28;20386;-68
2021/06/17 08:38:34;;;;;;;;;;;24.80;99.90;;;;;;5069208;28;20008;-68
2021/06/17 08:40:59;;;;;;;;;;;25.00;99.90;;;;;;5070816;28;19981;-68
2021/06/17 08:43:25;;;;;;;;;;;25.10;99.90;;;;;;5072701;28;19909;-70
2021/06/17 08:45:51;;;;;;;;;;;25.10;99.90;;;;;;5069601;28;20403;-69
2021/06/17 08:48:16;;;;;;;;;;;25.20;99.90;;;;;;5067265;28;19925;-70
2021/06/17 08:50:42;;;;;;;;;;;25.20;99.90;;;;;;5070179;28;19924;-68
2021/06/17 08:53:08;;;;;;;;;;;25.30;99.90;;;;;;5070339;28;20436;-68
2021/06/17 08:55:34;;;;;;;;;;;25.50;99.90;;;;;;5068303;28;20058;-67
2021/06/17 08:58:00;;;;;;;;;;;25.70;99.90;;;;;;5070592;28;20358;-68
2021/06/17 09:00:26;;;;;;;;;;;25.70;99.90;;;;;;5071396;28;19920;-67
2021/06/17 09:02:53;;;;;;;;;;;25.80;99.90;;;;;;5063541;28;19923;-71
2021/06/17 09:05:19;;;;;;;;;;;25.90;99.90;;;;;;5068599;28;19921;-68
2021/06/17 09:07:44;;;;;;;;;;;26.10;99.90;;;;;;5071277;28;20308;-72
2021/06/17 09:10:10;;;;;;;;;;;26.20;99.90;;;;;;5070940;28;19912;-67
2021/06/17 09:12:43;;;;;;;;;;;26.40;99.90;;;;;;5072260;28;19917;-67
2021/06/17 09:15:09;;;;;;;;;;;26.50;99.90;;;;;;5070368;28;19966;-66
2021/06/17 09:17:34;;;;;;;;;;;26.50;99.90;;;;;;5062930;28;19912;-67
2021/06/17 09:20:00;;;;;;;;;;;26.30;99.90;;;;;;5069199;28;19913;-66
2021/06/17 09:22:26;;;;;;;;;;;26.30;99.90;;;;;;5071817;28;20284;-70
2021/06/17 09:24:53;;;;;;;;;;;26.30;99.90;;;;;;5070450;28;19913;-66
2021/06/17 09:27:22;;;;;;;;;;;26.40;99.90;;;;;;5066654;28;19913;-66
2021/06/17 09:29:51;;;;;;;;;;;26.50;99.90;;;;;;5069224;28;19963;-70
2021/06/17 09:32:18;;;;;;;;;;;26.60;99.90;;;;;;5067820;28;19977;-66
2021/06/17 09:34:44;;;;;;;;;;;26.70;99.90;;;;;;5069274;28;19912;-65
2021/06/17 09:37:26;;;;;;;;;;;26.70;99.90;;;;;;5070490;28;19990;-65
2021/06/17 09:39:51;;;;;;;;;;;26.70;99.90;;;;;;5082323;28;20251;-66
2021/06/17 09:42:17;;;;;;;;;;;26.80;99.90;;;;;;5070691;28;19920;-66
2021/06/17 09:44:42;;;;;;;;;;;26.90;99.90;;;;;;5071396;28;19916;-68
2021/06/17 09:47:11;;;;;;;;;;;26.90;99.90;;;;;;5071594;28;19936;-70
2021/06/17 09:49:38;;;;;;;;;;;26.80;99.90;;;;;;5071097;28;20035;-69
2021/06/17 09:52:04;;;;;;;;;;;26.80;99.90;;;;;;5066287;28;20008;-67
2021/06/17 09:54:31;;;;;;;;;;;26.80;99.90;;;;;;5070857;28;19948;-67
2021/06/17 09:56:58;;;;;;;;;;;26.80;99.90;;;;;;5069453;28;19919;-68
2021/06/17 09:59:31;;;;;;;;;;;26.90;99.90;;;;;;5065385;28;19935;-66
2021/06/17 10:01:57;;;;;;;;;;;27.00;99.90;;;;;;5071061;28;19909;-69
2021/06/17 10:04:23;;;;;;;;;;;27.00;99.90;;;;;;5069901;28;20003;-65
2021/06/17 10:06:48;;;;;;;;;;;26.90;99.90;;;;;;5069387;28;19913;-65
2021/06/17 10:09:17;;;;;;;;;;;27.00;99.90;;;;;;5070927;28;19912;-66
2021/06/17 10:11:43;;;;;;;;;;;27.00;99.90;;;;;;5053504;28;20615;-66
2021/06/17 10:14:09;;;;;;;;;;;27.20;99.90;;;;;;5054716;28;20314;-66
2021/06/17 10:16:38;;;;;;;;;;;27.30;99.90;;;;;;5058101;28;19931;-67
2021/06/17 10:19:03;;;;;;;;;;;27.30;99.90;;;;;;5049410;28;19915;-67
2021/06/17 10:21:31;;;;;;;;;;;27.40;99.90;;;;;;5049716;28;19989;-71
2021/06/17 10:23:58;;;;;;;;;;;27.50;99.90;;;;;;5064218;28;19919;-67
2021/06/17 10:26:25;;;;;;;;;;;27.40;99.90;;;;;;5067064;28;19923;-70
2021/06/17 10:28:53;;;;;;;;;;;27.50;99.90;;;;;;5066425;28;19999;-69
2021/06/17 10:31:38;;;;;;;;;;;27.50;99.90;;;;;;5070929;28;19913;-67
2021/06/17 10:34:22;;;;;;;;;;;27.70;99.90;;;;;;5057455;28;20015;-69
2021/06/17 10:37:06;;;;;;;;;;;27.80;99.90;;;;;;5050861;28;19963;-71
2021/06/17 10:39:55;;;;;;;;;;;27.90;99.90;;;;;;5069358;28;19924;-70
2021/06/17 10:42:28;;;;;;;;;;;28.10;99.90;;;;;;5050919;28;19912;-70
2021/06/17 10:44:59;;;;;;;;;;;28.10;99.90;;;;;;5067001;28;19917;-70
2021/06/17 10:47:55;;;;;;;;;;;28.10;99.90;;;;;;5071307;28;19909;-68
2021/06/17 10:50:28;;;;;;;;;;;28.10;99.90;;;;;;5070328;28;20330;-68
2021/06/17 10:53:14;;;;;;;;;;;28.00;99.90;;;;;;5068913;28;19931;-68
2021/06/17 10:55:53;;;;;;;;;;;27.80;99.90;;;;;;5069380;28;19912;-68
2021/06/17 10:58:36;;;;;;;;;;;27.90;99.90;;;;;;5073340;28;19920;-71
2021/06/17 11:01:20;;;;;;;;;;;28.00;99.90;;;;;;5071504;28;19920;-74
2021/06/17 11:03:45;;;;;;;;;;;27.90;99.90;;;;;;5071473;28;19913;-68
2021/06/17 11:06:11;;;;;;;;;;;27.90;99.90;;;;;;5071607;28;19995;-71
2021/06/17 11:08:36;;;;;;;;;;;27.80;99.90;;;;;;5073409;28;19923;-66
2021/06/17 11:11:04;;;;;;;;;;;27.80;99.90;;;;;;5070318;28;20018;-68
2021/06/17 11:13:39;;;;;;;;;;;27.70;99.90;;;;;;5071778;28;20378;-67
2021/06/17 11:16:05;;;;;;;;;;;27.70;99.90;;;;;;5073570;28;19912;-69
2021/06/17 11:18:48;;;;;;;;;;;27.70;99.90;;;;;;5072179;28;19919;-67
2021/06/17 11:21:30;;;;;;;;;;;27.70;99.90;;;;;;5086874;28;20326;-71
2021/06/17 11:24:21;;;;;;;;;;;27.70;99.90;;;;;;5070334;28;20341;-67
2021/06/17 11:26:47;;;;;;;;;;;27.60;99.90;;;;;;5071414;28;19909;-69
2021/06/17 11:29:20;;;;;;;;;;;27.60;99.90;;;;;;5071634;28;19927;-73
2021/06/17 11:31:46;;;;;;;;;;;27.70;99.90;;;;;;5060384;28;19919;-71
2021/06/17 11:34:13;;;;;;;;;;;27.70;99.90;;;;;;5069726;28;19913;-73
2021/06/17 11:36:47;;;;;;;;;;;27.80;99.90;;;;;;5070216;28;19909;-67
2021/06/17 11:39:12;;;;;;;;;;;28.00;99.90;;;;;;5069629;28;19919;-68
2021/06/17 11:41:39;;;;;;;;;;;28.00;99.90;;;;;;5073363;28;19912;-72
2021/06/17 11:44:05;;;;;;;;;;;28.00;99.90;;;;;;5071870;28;20374;-69
2021/06/17 11:46:32;;;;;;;;;;;28.00;99.90;;;;;;5070909;28;20290;-68
2021/06/17 11:49:06;;;;;;;;;;;27.90;99.90;;;;;;5072976;28;19999;-66
2021/06/17 11:51:46;;;;;;;;;;;28.00;99.90;;;;;;5072632;28;20501;-69
2021/06/17 11:54:20;;;;;;;;;;;28.20;99.90;;;;;;5062076;28;19994;-66
2021/06/17 11:56:46;;;;;;;;;;;28.30;99.90;;;;;;5070080;28;19908;-70
2021/06/17 11:59:15;;;;;;;;;;;28.30;99.90;;;;;;5064843;28;19919;-67
2021/06/17 12:02:00;;;;;;;;;;;28.40;99.90;;;;;;5070460;28;19995;-71
2021/06/17 12:04:37;;;;;;;;;;;28.50;99.90;;;;;;5069339;28;19962;-67
2021/06/17 12:07:03;;;;;;;;;;;28.60;99.90;;;;;;5071166;28;19916;-71
2021/06/17 12:09:29;;;;;;;;;;;29.00;99.90;;;;;;5072048;28;19928;-71
2021/06/17 12:12:11;;;;;;;;;;;29.20;99.90;;;;;;5068825;28;19916;-72
2021/06/17 12:14:39;;;;;;;;;;;29.30;99.90;;;;;;5072626;28;19908;-72
2021/06/17 12:17:05;;;;;;;;;;;29.40;99.90;;;;;;5072284;28;20367;-73
2021/06/17 12:19:30;;;;;;;;;;;29.50;99.90;;;;;;5071058;28;19954;-68
2021/06/17 12:22:03;;;;;;;;;;;29.50;99.90;;;;;;5072453;28;19912;-67
2021/06/17 12:24:28;;;;;;;;;;;29.60;99.90;;;;;;5067600;28;19913;-67
2021/06/17 12:26:54;;;;;;;;;;;29.80;99.90;;;;;;5070920;28;19961;-69
2021/06/17 12:29:23;;;;;;;;;;;29.80;99.90;;;;;;5070950;28;19912;-68
2021/06/17 12:31:53;;;;;;;;;;;29.80;99.90;;;;;;5066404;28;19951;-67
2021/06/17 12:34:19;;;;;;;;;;;29.70;98.90;;;;;;5072401;28;19934;-68
2021/06/17 12:36:57;;;;;;;;;;;29.60;99.90;;;;;;5070114;28;19913;-69
2021/06/17 12:39:22;;;;;;;;;;;29.40;99.20;;;;;;5071474;28;19913;-73
2021/06/17 12:41:49;;;;;;;;;;;29.50;99.60;;;;;;5071943;28;19920;-68
2021/06/17 12:44:30;;;;;;;;;;;29.50;99.90;;;;;;5071403;28;19913;-67
2021/06/17 12:47:00;;;;;;;;;;;29.50;97.90;;;;;;5070402;28;19988;-71
2021/06/17 12:52:07;;;;;;;;;;;29.60;98.60;;;;;;5071433;28;20263;-67
2021/06/17 12:54:34;;;;;;;;;;;29.70;99.20;;;;;;5071640;28;19924;-69
2021/06/17 12:57:03;;;;;;;;;;;29.60;98.40;;;;;;5071584;28;19912;-68
2021/06/17 12:59:38;;;;;;;;;;;29.50;99.20;;;;;;5067881;28;19921;-67
2021/06/17 13:02:05;;;;;;;;;;;29.50;98.40;;;;;;5066306;28;20381;-72
2021/06/17 13:04:30;;;;;;;;;;;29.40;98.50;;;;;;5059647;28;20366;-69
2021/06/17 13:06:56;;;;;;;;;;;29.50;98.60;;;;;;5063384;28;19927;-71
2021/06/17 13:09:22;;;;;;;;;;;29.40;99.20;;;;;;5061164;28;19923;-75
2021/06/17 13:12:03;;;;;;;;;;;29.50;99.50;;;;;;5060438;28;19919;-71
2021/06/17 13:14:28;;;;;;;;;;;29.60;99.20;;;;;;5067264;28;20325;-71
2021/06/17 13:17:06;;;;;;;;;;;29.50;99.40;;;;;;5064559;28;20007;-67
2021/06/17 13:19:32;;;;;;;;;;;29.50;98.40;;;;;;5064972;28;19913;-66
2021/06/17 13:22:03;;;;;;;;;;;29.80;99.90;;;;;;5070472;28;20417;-67
2021/06/17 13:24:28;;;;;;;;;;;29.60;99.80;;;;;;5061436;28;20040;-67
2021/06/17 13:27:12;;;;;;;;;;;29.50;99.90;;;;;;5062295;28;20003;-68
2021/06/17 13:29:55;;;;;;;;;;;29.40;99.90;;;;;;5072603;28;19924;-67
2021/06/17 13:32:21;;;;;;;;;;;29.30;99.90;;;;;;5064823;28;19920;-71
2021/06/17 13:34:47;;;;;;;;;;;29.30;99.90;;;;;;5063647;28;19916;-71
2021/06/17 13:37:12;;;;;;;;;;;29.20;99.90;;;;;;5069063;28;19920;-68
2021/06/17 13:39:38;;;;;;;;;;;29.00;99.90;;;;;;5071882;28;20366;-67
2021/06/17 13:42:04;;;;;;;;;;;29.00;99.90;;;;;;5067933;28;19919;-70
2021/06/17 13:44:31;;;;;;;;;;;29.00;99.90;;;;;;5068879;28;19933;-72
2021/06/17 13:46:56;;;;;;;;;;;29.00;99.90;;;;;;5068690;28;19912;-68
2021/06/17 13:49:22;;;;;;;;;;;29.00;99.90;;;;;;5065603;28;20378;-68
2021/06/17 13:51:50;;;;;;;;;;;29.10;99.90;;;;;;5069776;28;20347;-69
2021/06/17 13:54:21;;;;;;;;;;;28.90;99.90;;;;;;5068940;28;19917;-71
2021/06/17 13:56:47;;;;;;;;;;;29.00;99.90;;;;;;5071040;28;19916;-68
2021/06/17 13:59:13;;;;;;;;;;;29.00;99.90;;;;;;5067632;28;20340;-68
2021/06/17 14:01:38;;;;;;;;;;;29.00;99.90;;;;;;5069801;28;19919;-72
2021/06/17 14:04:04;;;;;;;;;;;28.90;99.90;;;;;;5066306;28;19923;-70
2021/06/17 14:06:30;;;;;;;;;;;28.70;99.90;;;;;;5069339;28;19912;-67
2021/06/17 14:08:55;;;;;;;;;;;28.70;99.90;;;;;;5069777;28;19921;-73
2021/06/17 14:11:21;;;;;;;;;;;28.40;99.90;;;;;;5069784;28;19919;-71
2021/06/17 14:13:47;;;;;;;;;;;28.30;99.90;;;;;;5070716;28;19958;-67
2021/06/17 14:16:12;;;;;;;;;;;28.50;99.90;;;;;;5070347;28;20330;-70
2021/06/17 14:18:38;;;;;;;;;;;28.40;99.90;;;;;;5068131;28;19912;-68
2021/06/17 14:21:04;;;;;;;;;;;28.50;99.90;;;;;;5067827;28;19952;-70
2021/06/17 14:23:29;;;;;;;;;;;28.70;99.90;;;;;;5070001;28;19920;-67
2021/06/17 14:25:55;;;;;;;;;;;28.70;99.90;;;;;;5069872;28;20370;-68